Time;durP1;ratioP1;P1;durP2;ratioP2;P2;SDS_P1;SDS_P2;PMS_P1;PMS_P2;Temp;Humidity;BMP_temperature;BMP_pressure;BME280_temperature;BME280_humidity;BME280_pressure;Samples;Min_cycle;Max_cycle;Signal;HPM_P1;HPM_P2
2021/07/31 00:02:07;;;;;;;18.92;8.40;;;13.70;91.90;;;;;;5085023;28;20498;-73
2021/07/31 00:04:37;;;;;;;18.58;8.50;;;13.70;92.00;;;;;;5068739;28;20061;-74
2021/07/31 00:07:06;;;;;;;17.92;8.60;;;13.70;92.00;;;;;;5082221;28;20048;-74
2021/07/31 00:09:33;;;;;;;17.45;8.32;;;13.60;92.10;;;;;;5078435;28;20041;-74
2021/07/31 00:12:05;;;;;;;19.30;8.63;;;13.60;92.10;;;;;;5080316;28;20071;-74
2021/07/31 00:14:33;;;;;;;19.13;7.68;;;13.60;92.10;;;;;;5094679;28;20497;-73
2021/07/31 00:17:02;;;;;;;13.35;7.60;;;13.60;92.10;;;;;;5094642;28;20056;-74
2021/07/31 00:19:30;;;;;;;14.48;8.05;;;13.60;92.10;;;;;;5093567;28;20408;-74
2021/07/31 00:21:57;;;;;;;19.42;7.22;;;13.70;92.10;;;;;;5094327;28;20490;-74
2021/07/31 00:24:25;;;;;;;18.40;7.85;;;13.70;92.10;;;;;;5093381;28;20063;-74
2021/07/31 00:26:53;;;;;;;15.18;8.15;;;13.70;92.10;;;;;;5089517;28;20036;-73
2021/07/31 00:29:20;;;;;;;17.05;7.93;;;13.70;92.10;;;;;;5086776;28;20054;-74
2021/07/31 00:31:50;;;;;;;19.17;8.18;;;13.70;92.10;;;;;;5094418;28;20048;-74
2021/07/31 00:34:18;;;;;;;20.83;8.02;;;13.70;92.10;;;;;;5095294;28;20055;-74
2021/07/31 00:36:45;;;;;;;14.23;7.65;;;13.70;92.10;;;;;;5090952;28;20487;-72
2021/07/31 00:39:13;;;;;;;18.95;8.73;;;13.70;92.10;;;;;;5085303;28;20044;-73
2021/07/31 00:41:41;;;;;;;16.08;7.88;;;13.70;92.10;;;;;;5094198;28;20486;-72
2021/07/31 00:44:08;;;;;;;14.15;7.80;;;13.70;92.10;;;;;;5094179;28;20044;-73
2021/07/31 00:46:37;;;;;;;27.58;8.77;;;13.80;92.10;;;;;;5093910;28;20040;-72
2021/07/31 00:49:06;;;;;;;15.32;8.30;;;13.70;92.10;;;;;;5090383;28;20051;-72
2021/07/31 00:51:33;;;;;;;18.67;8.48;;;13.70;92.10;;;;;;5084434;28;20048;-72
2021/07/31 00:54:02;;;;;;;15.52;7.93;;;13.70;92.10;;;;;;5089864;28;20055;-72
2021/07/31 00:56:31;;;;;;;15.43;7.95;;;13.70;92.10;;;;;;5094956;28;20051;-72
2021/07/31 00:58:59;;;;;;;19.52;8.30;;;13.70;92.10;;;;;;5092644;28;20043;-72
2021/07/31 01:01:30;;;;;;;15.88;7.28;;;13.70;92.10;;;;;;5093114;28;20040;-72
2021/07/31 01:03:58;;;;;;;17.23;8.40;;;13.70;92.10;;;;;;5092859;28;20052;-73
2021/07/31 01:06:25;;;;;;;15.68;6.68;;;13.70;92.10;;;;;;5086861;28;20130;-73
2021/07/31 01:08:53;;;;;;;12.98;6.15;;;13.70;92.10;;;;;;5083119;28;20040;-72
2021/07/31 01:11:23;;;;;;;17.15;6.45;;;13.70;92.10;;;;;;5092690;28;20048;-73
2021/07/31 01:13:55;;;;;;;10.40;5.97;;;13.60;92.10;;;;;;5092572;28;20483;-73
2021/07/31 01:16:23;;;;;;;11.57;6.30;;;13.60;92.00;;;;;;5093055;28;20055;-73
2021/07/31 01:18:50;;;;;;;7.97;5.50;;;13.60;92.00;;;;;;5090797;28;20051;-73
2021/07/31 01:21:41;;;;;;;10.63;6.20;;;13.60;92.00;;;;;;5085340;28;20494;-73
2021/07/31 01:24:21;;;;;;;16.60;5.38;;;13.60;92.00;;;;;;5083893;28;20040;-73
2021/07/31 01:26:52;;;;;;;16.92;5.35;;;13.50;92.00;;;;;;5088354;28;20056;-73
2021/07/31 01:29:21;;;;;;;8.50;5.25;;;13.50;92.00;;;;;;5085731;28;20048;-73
2021/07/31 01:31:50;;;;;;;16.55;5.50;;;13.50;92.00;;;;;;5093916;28;20055;-73
2021/07/31 01:34:18;;;;;;;12.68;5.25;;;13.50;92.00;;;;;;5092010;28;20036;-73
2021/07/31 01:36:47;;;;;;;11.18;4.93;;;13.50;92.00;;;;;;5091795;28;20037;-73
2021/07/31 01:39:16;;;;;;;10.30;4.65;;;13.50;92.10;;;;;;5075417;28;20041;-72
2021/07/31 01:41:46;;;;;;;7.15;4.85;;;13.50;92.10;;;;;;5091806;28;20051;-73
2021/07/31 01:44:15;;;;;;;10.00;4.97;;;13.40;92.10;;;;;;5091743;28;20032;-73
2021/07/31 01:46:42;;;;;;;15.40;5.07;;;13.40;92.10;;;;;;5093193;28;20048;-73
2021/07/31 01:49:10;;;;;;;12.95;4.95;;;13.40;92.20;;;;;;5088011;28;20047;-73
2021/07/31 01:51:45;;;;;;;9.90;4.78;;;13.40;92.20;;;;;;5088309;28;20063;-73
2021/07/31 01:54:12;;;;;;;10.77;4.60;;;13.40;92.30;;;;;;5093090;28;20054;-73
2021/07/31 01:56:40;;;;;;;13.15;5.18;;;13.30;92.20;;;;;;5093249;28;20087;-73
2021/07/31 01:59:10;;;;;;;8.48;4.32;;;13.30;92.20;;;;;;5074613;28;20051;-73
2021/07/31 02:01:38;;;;;;;9.10;4.50;;;13.30;92.20;;;;;;5091688;28;20076;-73
2021/07/31 02:04:08;;;;;;;11.32;5.03;;;13.30;92.20;;;;;;5091460;28;20048;-73
2021/07/31 02:06:44;;;;;;;9.90;4.90;;;13.30;92.20;;;;;;5085111;28;20052;-73
2021/07/31 02:09:13;;;;;;;16.63;5.90;;;13.30;92.20;;;;;;5083748;28;20044;-73
2021/07/31 02:11:41;;;;;;;14.82;5.70;;;13.30;92.20;;;;;;5087436;28;20051;-73
2021/07/31 02:14:09;;;;;;;9.40;5.55;;;13.30;92.20;;;;;;5092382;28;20379;-73
2021/07/31 02:16:44;;;;;;;12.68;5.30;;;13.30;92.20;;;;;;5091921;28;20044;-73
2021/07/31 02:19:17;;;;;;;15.43;6.38;;;13.30;92.30;;;;;;5091158;28;20032;-72
2021/07/31 02:21:53;;;;;;;10.07;5.57;;;13.30;92.20;;;;;;5078827;28;20111;-73
2021/07/31 02:24:51;;;;;;;12.45;6.07;;;13.30;92.20;;;;;;5049757;28;20415;-73
2021/07/31 02:27:45;;;;;;;14.02;6.28;;;13.30;92.30;;;;;;5037156;28;20050;-73
2021/07/31 02:30:13;;;;;;;12.35;6.18;;;13.20;92.20;;;;;;5032588;28;20057;-73
2021/07/31 02:32:41;;;;;;;7.22;5.65;;;13.20;92.30;;;;;;5049239;28;20057;-73
2021/07/31 02:35:10;;;;;;;11.68;6.03;;;13.20;92.40;;;;;;5031553;28;20053;-73
2021/07/31 02:38:07;;;;;;;9.80;6.60;;;13.20;92.40;;;;;;4988137;28;20058;-72
2021/07/31 02:40:35;;;;;;;10.30;5.72;;;13.10;92.40;;;;;;4989512;28;20053;-73
2021/07/31 02:43:03;;;;;;;8.85;5.82;;;13.10;92.50;;;;;;4988588;28;20049;-73
2021/07/31 02:45:30;;;;;;;10.45;6.25;;;13.10;92.60;;;;;;4990291;28;20054;-73
2021/07/31 02:48:02;;;;;;;9.98;6.30;;;13.10;92.60;;;;;;4986525;28;20046;-73
2021/07/31 02:50:31;;;;;;;10.98;6.60;;;13.00;92.60;;;;;;4973221;28;20118;-73
2021/07/31 02:53:07;;;;;;;8.25;7.15;;;13.00;92.60;;;;;;4980466;28;20058;-74
2021/07/31 02:55:35;;;;;;;10.82;7.07;;;13.00;92.60;;;;;;4989739;28;20058;-73
2021/07/31 02:58:03;;;;;;;12.80;7.30;;;13.00;92.60;;;;;;4956590;28;20440;-74
2021/07/31 03:00:32;;;;;;;13.82;7.00;;;13.00;92.60;;;;;;4978286;28;20061;-73
2021/07/31 03:03:00;;;;;;;10.45;7.88;;;13.10;92.60;;;;;;5016716;28;20058;-72
2021/07/31 03:05:28;;;;;;;10.50;7.57;;;13.00;92.60;;;;;;5013327;28;20503;-74
2021/07/31 03:08:05;;;;;;;9.32;6.30;;;13.00;92.60;;;;;;5028579;28;20415;-73
2021/07/31 03:10:33;;;;;;;10.75;7.00;;;13.00;92.60;;;;;;5035868;28;20048;-73
2021/07/31 03:13:01;;;;;;;11.05;6.95;;;13.00;92.60;;;;;;5023292;28;20049;-74
2021/07/31 03:15:29;;;;;;;8.57;6.72;;;13.00;92.60;;;;;;5091382;28;20059;-74
2021/07/31 03:17:57;;;;;;;10.77;6.25;;;13.00;92.70;;;;;;5089400;28;20402;-73
2021/07/31 03:20:25;;;;;;;14.05;7.05;;;12.90;92.70;;;;;;5089582;28;20055;-73
2021/07/31 03:22:58;;;;;;;10.75;7.10;;;12.90;92.70;;;;;;5090603;28;20434;-73
2021/07/31 03:25:27;;;;;;;15.82;7.05;;;12.90;92.70;;;;;;5091956;28;20518;-73
2021/07/31 03:27:54;;;;;;;9.75;7.65;;;12.80;92.80;;;;;;5089425;28;20032;-74
2021/07/31 03:30:43;;;;;;;9.68;6.68;;;12.80;92.80;;;;;;5091836;28;20040;-74
2021/07/31 03:33:15;;;;;;;10.52;6.97;;;12.80;92.80;;;;;;5090168;28;20051;-74
2021/07/31 03:35:44;;;;;;;11.30;7.38;;;12.80;92.80;;;;;;5089714;28;20040;-73
2021/07/31 03:38:31;;;;;;;10.05;7.25;;;12.90;92.80;;;;;;5077112;28;20047;-73
2021/07/31 03:40:59;;;;;;;9.55;6.75;;;12.80;92.80;;;;;;5090603;28;20048;-73
2021/07/31 03:43:36;;;;;;;10.40;7.25;;;12.90;92.80;;;;;;5091281;28;20475;-74
2021/07/31 03:46:07;;;;;;;6.95;6.25;;;12.90;92.80;;;;;;5094394;28;20063;-74
2021/07/31 03:48:35;;;;;;;13.13;7.07;;;12.90;92.80;;;;;;5086296;28;20394;-73
2021/07/31 03:51:03;;;;;;;11.35;6.45;;;13.00;92.80;;;;;;5095824;28;20043;-73
2021/07/31 03:53:38;;;;;;;11.23;6.57;;;13.00;92.80;;;;;;5090540;28;20037;-74
2021/07/31 03:56:08;;;;;;;10.32;7.07;;;13.00;92.80;;;;;;5093224;28;20415;-73
2021/07/31 03:58:37;;;;;;;8.93;6.68;;;13.10;92.80;;;;;;5093696;28;20276;-73
2021/07/31 04:01:05;;;;;;;8.98;6.68;;;13.10;92.70;;;;;;5093912;28;20493;-74
2021/07/31 04:03:33;;;;;;;11.30;6.40;;;13.20;92.70;;;;;;5085718;28;20048;-73
2021/07/31 04:06:01;;;;;;;10.95;6.88;;;13.20;92.60;;;;;;5092577;28;20036;-73
2021/07/31 04:08:44;;;;;;;8.65;7.20;;;13.20;92.50;;;;;;5089674;28;20419;-73
2021/07/31 04:11:18;;;;;;;12.05;8.13;;;13.30;92.50;;;;;;5093912;28;20055;-73
2021/07/31 04:14:04;;;;;;;14.15;8.32;;;13.30;92.40;;;;;;5093582;28;20051;-73
2021/07/31 04:16:39;;;;;;;12.60;8.10;;;13.30;92.40;;;;;;5094257;28;20059;-73
2021/07/31 04:19:07;;;;;;;14.45;8.15;;;13.30;92.40;;;;;;5095342;28;20506;-72
2021/07/31 04:21:38;;;;;;;11.32;8.70;;;13.30;92.40;;;;;;5090914;28;20056;-73
2021/07/31 04:24:08;;;;;;;13.20;8.50;;;13.30;92.40;;;;;;5093846;28;20040;-73
2021/07/31 04:26:36;;;;;;;13.05;8.60;;;13.30;92.30;;;;;;5095265;28;20048;-73
2021/07/31 04:29:03;;;;;;;12.18;8.73;;;13.30;92.30;;;;;;5090551;28;20402;-73
2021/07/31 04:31:31;;;;;;;12.45;8.63;;;13.30;92.30;;;;;;5094978;28;20052;-74
2021/07/31 04:33:58;;;;;;;10.70;8.95;;;13.30;92.30;;;;;;5094402;28;20055;-74
2021/07/31 04:36:26;;;;;;;12.07;8.90;;;13.30;92.20;;;;;;5093760;28;20048;-74
2021/07/31 04:38:54;;;;;;;9.15;8.15;;;13.30;92.20;;;;;;5094993;28;20131;-73
2021/07/31 04:41:21;;;;;;;13.20;9.50;;;13.40;92.20;;;;;;5088936;28;20059;-74
2021/07/31 04:43:49;;;;;;;12.68;8.60;;;13.40;92.20;;;;;;5094128;28;20090;-74
2021/07/31 04:46:16;;;;;;;10.63;8.48;;;13.40;92.10;;;;;;5078452;28;20040;-74
2021/07/31 04:48:44;;;;;;;13.07;9.80;;;13.40;92.10;;;;;;5094555;28;20055;-74
2021/07/31 04:51:12;;;;;;;10.98;9.77;;;13.50;92.10;;;;;;5094692;28;20600;-74
2021/07/31 04:53:40;;;;;;;10.77;8.93;;;13.50;92.10;;;;;;5094028;28;20044;-74
2021/07/31 04:56:08;;;;;;;12.10;8.82;;;13.50;92.00;;;;;;5093513;28;20040;-74
2021/07/31 04:58:35;;;;;;;10.23;9.23;;;13.50;92.00;;;;;;5093528;28;20470;-74
2021/07/31 05:01:03;;;;;;;11.85;8.75;;;13.50;92.00;;;;;;5092551;28;20048;-74
2021/07/31 05:03:31;;;;;;;12.93;8.50;;;13.50;92.00;;;;;;5094483;28;20399;-74
2021/07/31 05:05:58;;;;;;;10.07;8.70;;;13.50;91.90;;;;;;5080728;28;20039;-74
2021/07/31 05:08:26;;;;;;;11.43;8.60;;;13.50;91.90;;;;;;5093348;28;20494;-74
2021/07/31 05:10:54;;;;;;;8.80;7.85;;;13.60;91.90;;;;;;5082454;28;20391;-74
2021/07/31 05:13:21;;;;;;;9.20;7.82;;;13.60;91.90;;;;;;5093593;28;20040;-73
2021/07/31 05:15:49;;;;;;;10.10;8.32;;;13.60;91.90;;;;;;5093031;28;20510;-74
2021/07/31 05:18:17;;;;;;;11.82;8.20;;;13.60;91.90;;;;;;5073133;28;20051;-74
2021/07/31 05:20:45;;;;;;;10.40;7.53;;;13.60;91.90;;;;;;5080074;28;20051;-74
2021/07/31 05:23:14;;;;;;;13.10;8.02;;;13.60;91.80;;;;;;5094234;28;20130;-74
2021/07/31 05:25:45;;;;;;;14.90;8.05;;;13.70;91.70;;;;;;5092819;28;20052;-74
2021/07/31 05:28:15;;;;;;;14.13;8.15;;;13.70;91.70;;;;;;5093982;28;20483;-74
2021/07/31 05:30:43;;;;;;;12.82;7.70;;;13.70;91.60;;;;;;5092481;28;20047;-73
2021/07/31 05:33:11;;;;;;;9.77;8.77;;;13.70;91.60;;;;;;5092808;28;20052;-74
2021/07/31 05:35:38;;;;;;;10.25;7.45;;;13.80;91.50;;;;;;5093051;28;20048;-74
2021/07/31 05:38:06;;;;;;;8.88;8.00;;;13.80;91.40;;;;;;5092243;28;20048;-73
2021/07/31 05:40:33;;;;;;;11.32;8.10;;;13.80;91.30;;;;;;5092675;28;20051;-74
2021/07/31 05:43:01;;;;;;;9.55;7.63;;;13.80;91.30;;;;;;5089169;28;20044;-74
2021/07/31 05:45:28;;;;;;;11.35;7.82;;;13.80;91.30;;;;;;5093735;28;20521;-74
2021/07/31 05:47:58;;;;;;;14.02;7.65;;;13.80;91.20;;;;;;5093205;28;20062;-74
2021/07/31 05:50:26;;;;;;;11.15;7.85;;;13.80;91.20;;;;;;5093426;28;20043;-74
2021/07/31 05:52:53;;;;;;;10.65;7.53;;;13.80;91.20;;;;;;5093529;28;20055;-73
2021/07/31 05:55:21;;;;;;;12.80;8.02;;;13.80;91.20;;;;;;5091919;28;20044;-74
2021/07/31 05:57:49;;;;;;;13.02;7.82;;;13.80;91.10;;;;;;5090200;28;20375;-74
2021/07/31 06:00:16;;;;;;;11.82;7.90;;;13.80;91.10;;;;;;5076375;28;20055;-74
2021/07/31 06:02:44;;;;;;;12.00;8.30;;;13.80;91.10;;;;;;5092321;28;20052;-74
2021/07/31 06:05:12;;;;;;;9.32;7.72;;;13.80;91.10;;;;;;5091308;28;20482;-75
2021/07/31 06:07:40;;;;;;;12.55;8.23;;;13.80;91.10;;;;;;5091885;28;20043;-75
2021/07/31 06:10:08;;;;;;;8.65;7.75;;;13.90;91.10;;;;;;5081143;28;20513;-75
2021/07/31 06:12:36;;;;;;;9.80;7.97;;;13.90;91.10;;;;;;5093204;28;20538;-76
2021/07/31 06:15:04;;;;;;;8.20;7.40;;;13.90;91.00;;;;;;5090621;28;20048;-75
2021/07/31 06:17:31;;;;;;;10.05;7.85;;;14.00;91.00;;;;;;5087190;28;20044;-75
2021/07/31 06:20:00;;;;;;;13.93;7.97;;;14.00;90.90;;;;;;5091793;28;20613;-74
2021/07/31 06:22:28;;;;;;;9.10;7.38;;;14.10;90.70;;;;;;5089297;28;20036;-74
2021/07/31 06:24:55;;;;;;;9.85;6.97;;;14.20;90.70;;;;;;5092913;28;20043;-74
2021/07/31 06:27:23;;;;;;;10.40;6.60;;;14.20;90.50;;;;;;5085407;28;20423;-74
2021/07/31 06:29:50;;;;;;;9.65;6.57;;;14.30;90.30;;;;;;5091586;28;20036;-75
2021/07/31 06:32:18;;;;;;;8.07;6.97;;;14.30;90.10;;;;;;5092101;28;20043;-74
2021/07/31 06:34:46;;;;;;;12.60;6.70;;;14.30;90.00;;;;;;5092011;28;20052;-75
2021/07/31 06:37:13;;;;;;;6.72;5.97;;;14.30;89.90;;;;;;5090638;28;20052;-74
2021/07/31 06:39:41;;;;;;;7.53;6.40;;;14.40;89.60;;;;;;5091614;28;20059;-74
2021/07/31 06:42:09;;;;;;;8.25;6.22;;;14.40;89.50;;;;;;5087932;28;20048;-75
2021/07/31 06:44:37;;;;;;;9.90;6.13;;;14.40;89.50;;;;;;5091808;28;20051;-75
2021/07/31 06:47:04;;;;;;;12.38;6.18;;;14.50;89.50;;;;;;5091781;28;20047;-74
2021/07/31 06:49:32;;;;;;;7.72;6.55;;;14.60;89.50;;;;;;5079323;28;20057;-75
2021/07/31 06:51:59;;;;;;;7.28;6.05;;;14.70;89.30;;;;;;5089378;28;20048;-75
2021/07/31 06:54:30;;;;;;;6.75;6.00;;;14.70;89.10;;;;;;5091736;28;20051;-74
2021/07/31 06:56:57;;;;;;;7.25;6.55;;;14.80;89.00;;;;;;5089856;28;20052;-75
2021/07/31 06:59:25;;;;;;;8.48;6.05;;;14.80;88.90;;;;;;5085942;28;20509;-75
2021/07/31 07:01:52;;;;;;;7.93;6.25;;;14.80;88.80;;;;;;5092186;28;20056;-75
2021/07/31 07:04:20;;;;;;;9.48;6.10;;;14.80;88.80;;;;;;5082388;28;20043;-75
2021/07/31 07:06:48;;;;;;;7.88;6.53;;;14.90;88.80;;;;;;5077816;28;20051;-75
2021/07/31 07:09:15;;;;;;;10.32;6.35;;;14.90;88.70;;;;;;5083176;28;20051;-76
2021/07/31 07:11:43;;;;;;;6.70;6.03;;;15.10;88.70;;;;;;5088935;28;20044;-75
2021/07/31 07:14:11;;;;;;;6.75;5.80;;;15.10;88.40;;;;;;5091038;28;20401;-73
2021/07/31 07:16:39;;;;;;;6.82;6.00;;;15.10;88.20;;;;;;5085053;28;20445;-74
2021/07/31 07:19:06;;;;;;;10.98;5.60;;;15.20;88.20;;;;;;5083399;28;20048;-74
2021/07/31 07:21:34;;;;;;;7.03;5.90;;;15.20;88.10;;;;;;5081520;28;20036;-74
2021/07/31 07:24:02;;;;;;;8.43;5.78;;;15.30;88.10;;;;;;5087886;28;20051;-74
2021/07/31 07:26:30;;;;;;;5.80;4.75;;;15.30;88.10;;;;;;5089464;28;20056;-74
2021/07/31 07:28:57;;;;;;;8.55;5.40;;;15.30;87.50;;;;;;5082478;28;20048;-74
2021/07/31 07:31:25;;;;;;;5.63;5.07;;;15.30;87.20;;;;;;5080420;28;20483;-74
2021/07/31 07:33:56;;;;;;;10.63;5.57;;;15.30;87.20;;;;;;5087460;28;20043;-74
2021/07/31 07:36:23;;;;;;;6.90;5.32;;;15.30;87.20;;;;;;5083517;28;20032;-74
2021/07/31 07:38:51;;;;;;;8.20;5.72;;;15.30;87.10;;;;;;5076207;28;20055;-73
2021/07/31 07:41:20;;;;;;;5.53;4.95;;;15.30;87.40;;;;;;5063760;28;20041;-73
2021/07/31 07:43:48;;;;;;;6.40;5.30;;;15.20;87.40;;;;;;5085118;28;20303;-74
2021/07/31 07:46:17;;;;;;;9.95;6.10;;;15.20;87.40;;;;;;5074162;28;20051;-73
2021/07/31 07:48:46;;;;;;;12.57;8.80;;;15.20;87.60;;;;;;5086154;28;20056;-74
2021/07/31 07:51:14;;;;;;;16.70;8.52;;;15.20;87.50;;;;;;5091014;28;20032;-74
2021/07/31 07:53:42;;;;;;;10.32;6.63;;;15.30;87.30;;;;;;5090245;28;20048;-74
2021/07/31 07:56:10;;;;;;;9.13;5.85;;;15.20;87.30;;;;;;5087242;28;20056;-74
2021/07/31 07:58:38;;;;;;;8.00;5.20;;;15.30;87.50;;;;;;5090343;28;20375;-74
2021/07/31 08:01:09;;;;;;;7.22;4.32;;;15.30;87.50;;;;;;5084279;28;20056;-74
2021/07/31 08:03:37;;;;;;;4.80;4.40;;;15.40;87.00;;;;;;5091970;28;20051;-74
2021/07/31 08:06:05;;;;;;;5.22;4.28;;;15.30;87.10;;;;;;5091470;28;20048;-74
2021/07/31 08:08:33;;;;;;;9.48;4.65;;;15.30;87.10;;;;;;5087161;28;20063;-74
2021/07/31 08:11:00;;;;;;;5.40;4.25;;;15.40;87.00;;;;;;5083777;28;20491;-75
2021/07/31 08:13:28;;;;;;;6.05;4.13;;;15.50;86.90;;;;;;5078741;28;20434;-74
2021/07/31 08:15:55;;;;;;;6.68;3.08;;;15.60;86.60;;;;;;5088635;28;20048;-74
2021/07/31 08:18:23;;;;;;;4.47;4.00;;;15.70;86.20;;;;;;5090363;28;20063;-74
2021/07/31 08:20:51;;;;;;;6.63;3.95;;;15.70;85.90;;;;;;5091697;28;20056;-74
2021/07/31 08:23:19;;;;;;;4.55;3.35;;;15.80;86.00;;;;;;5092895;28;20064;-75
2021/07/31 08:25:47;;;;;;;5.25;3.83;;;15.80;85.90;;;;;;5084432;28;20057;-74
2021/07/31 08:28:14;;;;;;;5.43;3.25;;;15.80;85.70;;;;;;5090460;28;20055;-77
2021/07/31 08:30:42;;;;;;;4.07;3.75;;;15.80;85.80;;;;;;5084727;28;20506;-74
2021/07/31 08:33:10;;;;;;;5.05;3.95;;;15.80;85.80;;;;;;5088507;28;20040;-74
2021/07/31 08:35:38;;;;;;;3.70;3.28;;;15.80;86.00;;;;;;5093715;28;20052;-75
2021/07/31 08:38:06;;;;;;;7.10;4.20;;;15.80;85.60;;;;;;5081912;28;20491;-74
2021/07/31 08:40:34;;;;;;;6.70;3.83;;;15.80;85.80;;;;;;5090583;28;20064;-74
2021/07/31 08:43:02;;;;;;;5.35;3.53;;;15.90;85.80;;;;;;5083231;28;20051;-75
2021/07/31 08:45:30;;;;;;;3.80;3.35;;;16.10;85.80;;;;;;5071351;28;20052;-74
2021/07/31 08:48:00;;;;;;;6.75;4.00;;;16.20;85.60;;;;;;5082716;28;20064;-75
2021/07/31 08:50:29;;;;;;;7.45;3.30;;;16.30;84.60;;;;;;5087377;28;20036;-74
2021/07/31 08:52:57;;;;;;;6.25;3.13;;;16.30;84.30;;;;;;5091559;28;20429;-74
2021/07/31 08:55:25;;;;;;;5.45;3.90;;;16.40;84.20;;;;;;5083023;28;20047;-74
2021/07/31 08:57:53;;;;;;;11.10;4.80;;;16.30;83.70;;;;;;5082721;28;20052;-74
2021/07/31 09:00:20;;;;;;;7.85;4.47;;;16.30;83.50;;;;;;5087590;28;20048;-75
2021/07/31 09:02:49;;;;;;;6.70;5.00;;;16.20;83.30;;;;;;5093157;28;20044;-74
2021/07/31 09:05:34;;;;;;;10.93;5.57;;;16.20;83.60;;;;;;5087051;28;20048;-74
2021/07/31 09:08:06;;;;;;;11.55;6.93;;;16.00;83.30;;;;;;5091478;28;20052;-74
2021/07/31 09:10:37;;;;;;;10.70;7.03;;;16.00;83.60;;;;;;5087128;28;20059;-76
2021/07/31 09:13:16;;;;;;;11.00;7.07;;;15.90;83.70;;;;;;5086385;28;20044;-75
2021/07/31 09:15:48;;;;;;;12.45;7.05;;;15.80;84.20;;;;;;5086584;28;20051;-75
2021/07/31 09:18:19;;;;;;;10.38;6.30;;;15.80;84.50;;;;;;5078764;28;20043;-75
2021/07/31 09:21:07;;;;;;;11.98;5.43;;;15.80;84.60;;;;;;5081240;28;20051;-76
2021/07/31 09:23:53;;;;;;;5.38;4.38;;;15.80;85.00;;;;;;5091311;28;20051;-74
2021/07/31 09:26:36;;;;;;;5.78;4.07;;;15.70;85.30;;;;;;5078911;28;20052;-74
2021/07/31 09:29:10;;;;;;;5.35;3.80;;;15.70;85.50;;;;;;5088286;28;20390;-74
2021/07/31 09:31:51;;;;;;;4.88;3.35;;;15.70;85.70;;;;;;5083734;28;20040;-74
2021/07/31 09:34:28;;;;;;;5.40;3.30;;;15.70;85.70;;;;;;5086572;28;20044;-74
2021/07/31 09:37:04;;;;;;;6.00;3.40;;;15.70;85.70;;;;;;5089969;28;20059;-74
2021/07/31 09:39:52;;;;;;;5.88;3.58;;;15.60;85.90;;;;;;5090272;28;20040;-74
2021/07/31 09:42:35;;;;;;;4.20;3.65;;;15.60;86.10;;;;;;5088243;28;20039;-74
2021/07/31 09:45:17;;;;;;;3.60;3.27;;;15.60;86.20;;;;;;5086543;28;20047;-74
2021/07/31 09:48:03;;;;;;;3.70;3.40;;;15.50;86.40;;;;;;5084910;28;20290;-76
2021/07/31 09:50:49;;;;;;;5.78;3.50;;;15.40;86.70;;;;;;5079088;28;20044;-75
2021/07/31 09:53:21;;;;;;;5.25;4.18;;;15.40;86.90;;;;;;5084375;28;20475;-74
2021/07/31 09:55:56;;;;;;;10.10;5.70;;;15.50;87.00;;;;;;5087383;28;20043;-75
2021/07/31 09:58:27;;;;;;;6.15;5.32;;;15.50;86.90;;;;;;5081879;28;20048;-74
2021/07/31 10:00:56;;;;;;;5.88;4.40;;;15.60;86.90;;;;;;5082120;28;20048;-74
2021/07/31 10:03:25;;;;;;;5.10;4.68;;;15.60;86.70;;;;;;5092142;28;20098;-74
2021/07/31 10:05:54;;;;;;;4.00;3.60;;;15.60;86.80;;;;;;5079760;28;20414;-74
2021/07/31 10:08:35;;;;;;;4.20;3.58;;;15.80;86.80;;;;;;5087917;28;20399;-74
2021/07/31 10:11:04;;;;;;;4.63;3.00;;;15.90;86.60;;;;;;5082679;28;20059;-74
2021/07/31 10:13:32;;;;;;;3.38;2.30;;;16.20;86.50;;;;;;5088409;28;20051;-74
2021/07/31 10:16:03;;;;;;;3.00;2.80;;;16.50;85.30;;;;;;5088346;28;20081;-74
2021/07/31 10:18:31;;;;;;;5.18;2.63;;;16.70;85.10;;;;;;5078058;28;20040;-73
2021/07/31 10:21:07;;;;;;;5.10;2.90;;;17.00;84.20;;;;;;5084344;28;20044;-75
2021/07/31 10:24:05;;;;;;;4.72;2.55;;;17.30;83.40;;;;;;5084613;28;20173;-74
2021/07/31 10:26:34;;;;;;;2.47;2.28;;;17.50;82.80;;;;;;5081288;28;20418;-74
2021/07/31 10:29:27;;;;;;;2.97;2.10;;;17.80;82.30;;;;;;5074994;28;20519;-74
2021/07/31 10:31:55;;;;;;;3.15;2.65;;;18.00;81.20;;;;;;5079914;28;20122;-75
2021/07/31 10:34:46;;;;;;;3.67;2.60;;;18.10;80.10;;;;;;5090165;28;20406;-75
2021/07/31 10:37:31;;;;;;;6.03;2.35;;;18.20;79.80;;;;;;5087492;28;20067;-75
2021/07/31 10:40:08;;;;;;;4.15;2.35;;;18.30;79.30;;;;;;5086770;28;20059;-75
2021/07/31 10:42:51;;;;;;;4.57;2.33;;;18.30;79.00;;;;;;5085253;28;20402;-74
2021/07/31 10:45:22;;;;;;;4.13;2.47;;;18.60;77.60;;;;;;5088418;28;20036;-75
2021/07/31 10:47:55;;;;;;;2.42;2.30;;;18.60;77.30;;;;;;5084351;28;20043;-75
2021/07/31 10:50:22;;;;;;;3.38;2.75;;;18.60;76.90;;;;;;5077591;28;20055;-75
2021/07/31 10:52:57;;;;;;;2.60;2.40;;;18.40;77.30;;;;;;5087281;28;20043;-74
2021/07/31 10:55:37;;;;;;;2.80;2.50;;;18.20;77.90;;;;;;5081689;28;20044;-74
2021/07/31 10:58:08;;;;;;;4.22;2.55;;;17.90;78.40;;;;;;5088002;28;20041;-75
2021/07/31 11:00:42;;;;;;;3.28;2.25;;;17.80;78.70;;;;;;5077291;28;20041;-74
2021/07/31 11:03:23;;;;;;;2.50;2.00;;;17.40;78.80;;;;;;5076545;28;20067;-74
2021/07/31 11:05:52;;;;;;;4.25;1.88;;;17.20;79.50;;;;;;5084831;28;20036;-74
2021/07/31 11:08:21;;;;;;;3.28;1.50;;;17.10;79.80;;;;;;5072148;28;20498;-74
2021/07/31 11:10:51;;;;;;;2.50;1.85;;;17.10;79.20;;;;;;5086326;28;20052;-74
2021/07/31 11:13:18;;;;;;;2.20;2.00;;;17.20;79.20;;;;;;5085747;28;20484;-74
2021/07/31 11:16:06;;;;;;;2.33;1.95;;;17.30;79.10;;;;;;5090912;28;20048;-74
2021/07/31 11:18:42;;;;;;;3.05;2.30;;;17.60;78.20;;;;;;5077993;28;20044;-74
2021/07/31 11:21:38;;;;;;;3.25;2.33;;;17.80;77.20;;;;;;5082333;28;20040;-74
2021/07/31 11:24:12;;;;;;;3.40;1.90;;;18.00;77.10;;;;;;5089882;28;20048;-74
2021/07/31 11:26:43;;;;;;;3.08;1.80;;;18.30;75.80;;;;;;5086922;28;20499;-75
2021/07/31 11:29:16;;;;;;;3.05;2.38;;;18.50;75.00;;;;;;5089476;28;20051;-74
2021/07/31 11:32:13;;;;;;;3.67;3.00;;;18.50;74.60;;;;;;5086870;28;20044;-75
2021/07/31 11:34:44;;;;;;;3.60;2.50;;;18.30;74.80;;;;;;5087204;28;20520;-75
2021/07/31 11:37:14;;;;;;;4.35;2.60;;;18.00;75.10;;;;;;5088744;28;20482;-75
2021/07/31 11:39:45;;;;;;;2.90;2.35;;;17.60;75.40;;;;;;5086096;28;20059;-74
2021/07/31 11:42:20;;;;;;;9.77;3.90;;;17.30;76.20;;;;;;5087584;28;20040;-74
2021/07/31 11:44:48;;;;;;;2.92;2.67;;;16.90;77.20;;;;;;5087269;28;20060;-74
2021/07/31 11:47:27;;;;;;;8.07;3.25;;;16.70;78.00;;;;;;5089291;28;20047;-74
2021/07/31 11:50:08;;;;;;;4.10;3.28;;;16.60;78.60;;;;;;5088387;28;20040;-74
2021/07/31 11:52:35;;;;;;;3.80;2.90;;;16.40;79.10;;;;;;5089909;28;20040;-75
2021/07/31 11:55:06;;;;;;;4.35;2.90;;;16.40;79.50;;;;;;5090274;28;20047;-74
2021/07/31 11:57:33;;;;;;;4.32;2.97;;;16.50;79.90;;;;;;5089875;28;20078;-74
2021/07/31 12:00:02;;;;;;;4.72;2.85;;;16.70;80.00;;;;;;5087794;28;20052;-76
2021/07/31 12:02:36;;;;;;;4.55;2.72;;;16.90;79.90;;;;;;5088355;28;20051;-76
2021/07/31 12:05:05;;;;;;;3.72;2.30;;;17.30;79.00;;;;;;5088353;28;20044;-75
2021/07/31 12:07:34;;;;;;;4.07;2.50;;;17.70;78.30;;;;;;5075636;28;20048;-75
2021/07/31 12:10:11;;;;;;;3.88;2.22;;;18.00;77.40;;;;;;5075856;28;20052;-75
2021/07/31 12:12:41;;;;;;;3.28;1.88;;;18.30;76.20;;;;;;5074190;28;20040;-74
2021/07/31 12:15:17;;;;;;;3.13;2.15;;;18.60;75.60;;;;;;5082354;28;20383;-76
2021/07/31 12:17:53;;;;;;;2.88;2.10;;;18.80;74.50;;;;;;5087338;28;20395;-75
2021/07/31 12:20:41;;;;;;;3.63;2.17;;;18.80;73.30;;;;;;5092345;28;20048;-74
2021/07/31 12:23:11;;;;;;;2.67;2.20;;;18.40;72.80;;;;;;5087632;28;20507;-74
2021/07/31 12:25:59;;;;;;;5.50;2.10;;;18.00;73.80;;;;;;5080992;28;20391;-74
2021/07/31 12:28:40;;;;;;;4.70;2.10;;;17.60;74.60;;;;;;5081350;28;20483;-75
2021/07/31 12:31:21;;;;;;;2.83;1.80;;;17.30;75.10;;;;;;5087629;28;20040;-75
2021/07/31 12:33:49;;;;;;;3.22;1.98;;;17.10;75.50;;;;;;5093893;28;20467;-74
2021/07/31 12:36:17;;;;;;;4.72;1.77;;;16.90;75.90;;;;;;5092838;28;20048;-75
2021/07/31 12:38:45;;;;;;;1.63;1.52;;;16.80;76.20;;;;;;5093470;28;20514;-74
2021/07/31 12:41:13;;;;;;;4.43;1.50;;;16.80;76.20;;;;;;5081838;28;20044;-75
2021/07/31 12:43:41;;;;;;;4.20;1.63;;;16.60;76.40;;;;;;5074389;28;20552;-74
2021/07/31 12:46:09;;;;;;;1.70;1.60;;;16.60;76.60;;;;;;5073884;28;20514;-75
2021/07/31 12:48:36;;;;;;;2.78;1.60;;;16.50;76.60;;;;;;5088832;28;20048;-75
2021/07/31 12:51:07;;;;;;;2.85;1.80;;;16.50;76.70;;;;;;5092712;28;20055;-74
2021/07/31 12:53:34;;;;;;;2.53;1.80;;;16.50;76.70;;;;;;5082866;28;20143;-74
2021/07/31 12:56:02;;;;;;;2.58;2.10;;;16.50;76.90;;;;;;5087031;28;20419;-75
2021/07/31 12:58:30;;;;;;;2.30;1.92;;;16.50;77.10;;;;;;5092152;28;20040;-74
2021/07/31 13:00:57;;;;;;;2.40;2.03;;;16.40;77.30;;;;;;5087086;28;20048;-75
2021/07/31 13:03:26;;;;;;;4.00;2.15;;;16.30;77.60;;;;;;5092804;28;20048;-74